Station History

Weather Underground - logo

Station Historical Data
Daily Summary for November 7, 2017 Units:  English    Metric   Both
« Previous Day
Next Day »
Daily Weekly Monthly Yearly Custom
  High: Low: Average:
Temperature: TemperatureF °F 38.3 °F 52.2 °F
Dew Point: DewpointF °F 35.8 °F 42.5 °F
Humidity: Humidity % 37 % 72 %
Wind Speed: WindSpeedMPH mph 0.0 mph 0.3 mph
Wind Gust: WindSpeedGustMPH mph - -
Wind:- - SW
Pressure: PressureIn in 30.04 in -
Precipitation: 0.00 in    
Historical Graphs
 
 
Tabular Data for November 7, 2017
Time Temperature Dew Point Pressure Wind Wind Speed Wind Gust Humidity Rainfall Rate (Hourly)
TemperatureF °F DewpointF °F PressureIn in Calm     Humidity % HourlyPrecipIn in
00:02 44.0 °F 41.0 °F 30.16 in Calm     89 % 0.00 in
00:07 43.8 °F 40.8 °F 30.16 in Calm     89 % 0.00 in
00:12 43.8 °F 41.1 °F 30.16 in Calm     90 % 0.00 in
00:17 43.7 °F 41.0 °F 30.17 in Calm     90 % 0.00 in
00:22 43.9 °F 41.2 °F 30.17 in Calm     90 % 0.00 in
00:27 43.8 °F 41.1 °F 30.17 in Calm     90 % 0.00 in
00:32 43.6 °F 40.6 °F 30.17 in Calm     89 % 0.00 in
00:37 43.5 °F 40.8 °F 30.17 in Calm     90 % 0.00 in
00:42 43.5 °F 41.0 °F 30.17 in Calm     91 % 0.00 in
00:47 43.5 °F 40.8 °F 30.17 in Calm     90 % 0.00 in
00:53 43.4 °F 40.7 °F 30.17 in Calm     90 % 0.00 in
00:58 43.4 °F 40.9 °F 30.17 in Calm     91 % 0.00 in
01:03 43.8 °F 41.6 °F 30.17 in Calm     92 % 0.00 in
01:05 43.9 °F 41.4 °F 30.17 in Calm     91 % 0.00 in
01:10 43.8 °F 41.3 °F 30.16 in Calm     91 % 0.00 in
01:15 43.8 °F 41.3 °F 30.16 in Calm     91 % 0.00 in
01:20 44.0 °F 41.5 °F 30.16 in Calm     91 % 0.00 in
01:25 44.1 °F 41.6 °F 30.16 in Calm     91 % 0.00 in
01:30 44.4 °F 41.7 °F 30.16 in Calm     90 % 0.00 in
01:35 44.4 °F 41.4 °F 30.16 in Calm     89 % 0.00 in
01:40 44.4 °F 41.4 °F 30.16 in North 1.0 mph 1.0 mph 89 % 0.00 in
01:45 44.7 °F 41.7 °F 30.16 in Calm     89 % 0.00 in
01:50 44.5 °F 41.5 °F 30.16 in Calm     89 % 0.00 in
01:55 44.5 °F 41.5 °F 30.16 in Calm     89 % 0.00 in
02:00 44.3 °F 41.0 °F 30.15 in Calm     88 % 0.00 in
02:05 44.3 °F 41.3 °F 30.15 in Calm     89 % 0.00 in
02:15 43.7 °F 40.4 °F 30.15 in Calm     88 % 0.00 in
02:20 42.9 °F 39.3 °F 30.15 in Calm     87 % 0.00 in
02:25 42.6 °F 39.6 °F 30.15 in Calm     89 % 0.00 in
02:30 42.5 °F 39.8 °F 30.15 in Calm     90 % 0.00 in
02:36 42.5 °F 39.8 °F 30.15 in Calm     90 % 0.00 in
02:41 42.3 °F 39.6 °F 30.14 in Calm     90 % 0.00 in
02:46 42.2 °F 39.5 °F 30.14 in Calm     90 % 0.00 in
02:51 42.0 °F 39.3 °F 30.14 in Calm     90 % 0.00 in
02:56 41.7 °F 39.0 °F 30.15 in Calm     90 % 0.00 in
03:01 41.3 °F 38.3 °F 30.15 in North 1.2 mph 1.2 mph 89 % 0.00 in
03:06 40.8 °F 37.8 °F 30.15 in Calm     89 % 0.00 in
03:11 40.6 °F 37.9 °F 30.15 in North 1.2 mph 1.2 mph 90 % 0.00 in
03:12 40.5 °F 37.8 °F 30.15 in North 1.2 mph   90 % 0.00 in
03:17 40.3 °F 37.6 °F 30.15 in Calm     90 % 0.00 in
03:27 39.9 °F 37.5 °F 30.15 in Calm     91 % 0.00 in
03:32 39.9 °F 37.5 °F 30.15 in Calm     91 % 0.00 in
03:37 39.9 °F 37.8 °F 30.15 in Calm     92 % 0.00 in
03:42 39.9 °F 37.8 °F 30.15 in Calm     92 % 0.00 in
03:47 39.9 °F 37.8 °F 30.15 in Calm     92 % 0.00 in
03:52 40.0 °F 37.9 °F 30.16 in Calm     92 % 0.00 in
03:57 39.9 °F 37.8 °F 30.15 in Calm     92 % 0.00 in
04:02 39.9 °F 37.8 °F 30.15 in Calm     92 % 0.00 in
04:07 40.1 °F 38.2 °F 30.16 in Calm     93 % 0.00 in
04:12 40.2 °F 38.3 °F 30.16 in Calm     93 % 0.00 in
04:17 40.3 °F 38.4 °F 30.16 in Calm     93 % 0.00 in
04:22 40.2 °F 38.3 °F 30.16 in Calm     93 % 0.00 in
04:27 40.7 °F 38.8 °F 30.16 in Calm     93 % 0.00 in
04:32 40.9 °F 39.0 °F 30.16 in Calm     93 % 0.00 in
04:37 41.0 °F 39.1 °F 30.16 in Calm     93 % 0.00 in
04:42 41.2 °F 39.3 °F 30.16 in North 1.2 mph   93 % 0.00 in
04:47 41.4 °F 39.5 °F 30.16 in North 1.2 mph   93 % 0.00 in
04:57 41.6 °F 39.4 °F 30.16 in Calm     92 % 0.00 in
05:02 41.7 °F 39.5 °F 30.16 in Calm     92 % 0.00 in
05:07 41.8 °F 39.6 °F 30.16 in Calm     92 % 0.00 in
05:12 41.5 °F 38.8 °F 30.16 in Calm     90 % 0.00 in
05:17 40.6 °F 37.6 °F 30.16 in Calm     89 % 0.00 in
05:22 40.0 °F 37.3 °F 30.16 in Calm     90 % 0.00 in
05:27 39.7 °F 37.3 °F 30.16 in Calm     91 % 0.00 in
05:32 39.5 °F 37.1 °F 30.16 in Calm     91 % 0.00 in
05:37 39.5 °F 37.4 °F 30.16 in Calm     92 % 0.00 in
05:42 39.7 °F 37.8 °F 30.16 in Calm     93 % 0.00 in
05:44 39.7 °F 37.8 °F 30.16 in Calm     93 % 0.00 in
05:49 39.8 °F 37.9 °F 30.16 in Calm     93 % 0.00 in
05:54 39.9 °F 38.0 °F 30.16 in Calm     93 % 0.00 in
05:59 40.1 °F 38.2 °F 30.16 in Calm     93 % 0.00 in
06:04 40.4 °F 38.5 °F 30.16 in Calm     93 % 0.00 in
06:09 40.7 °F 38.8 °F 30.16 in Calm     93 % 0.00 in
06:14 40.9 °F 38.8 °F 30.16 in Calm     92 % 0.00 in
06:19 40.9 °F 38.5 °F 30.16 in Calm     91 % 0.00 in
06:24 40.6 °F 38.2 °F 30.16 in Calm     91 % 0.00 in
06:29 39.7 °F 36.7 °F 30.17 in Calm     89 % 0.00 in
06:34 38.9 °F 35.9 °F 30.17 in Calm     89 % 0.00 in
06:39 38.5 °F 35.8 °F 30.17 in Calm     90 % 0.00 in
06:44 38.3 °F 35.9 °F 30.17 in Calm     91 % 0.00 in
06:49 38.3 °F 35.9 °F 30.17 in Calm     91 % 0.00 in
06:50 38.3 °F 35.9 °F 30.17 in Calm     91 % 0.00 in
06:55 38.4 °F 36.3 °F 30.17 in Calm     92 % 0.00 in
07:00 38.8 °F 36.9 °F 30.17 in Calm     93 % 0.00 in
07:05 39.3 °F 37.4 °F 30.17 in Calm     93 % 0.00 in
07:10 39.7 °F 37.6 °F 30.18 in Calm     92 % 0.00 in
07:15 40.2 °F 38.1 °F 30.18 in Calm     92 % 0.00 in
07:18 40.4 °F 38.3 °F 30.18 in Calm     92 % 0.00 in
07:23 41.1 °F 39.0 °F 30.18 in Calm     92 % 0.00 in
07:28 42.6 °F 40.4 °F 30.18 in Calm     92 % 0.00 in
07:33 44.4 °F 41.4 °F 30.18 in Calm     89 % 0.00 in
07:38 45.5 °F 41.9 °F 30.19 in Calm     87 % 0.00 in
07:43 47.0 °F 42.1 °F 30.19 in Calm     83 % 0.00 in
07:48 47.9 °F 42.3 °F 30.19 in Calm     81 % 0.00 in
07:53 48.4 °F 42.5 °F 30.19 in Calm     80 % 0.00 in
07:58 49.3 °F 43.4 °F 30.19 in Calm     80 % 0.00 in
08:03 49.8 °F 43.2 °F 30.19 in Calm     78 % 0.00 in
08:08 50.7 °F 44.1 °F 30.19 in Calm     78 % 0.00 in
08:13 51.1 °F 44.1 °F 30.19 in Calm     77 % 0.00 in
08:23 52.8 °F 45.1 °F 30.19 in Calm     75 % 0.00 in
08:28 53.7 °F 45.6 °F 30.19 in Calm     74 % 0.00 in
08:33 54.6 °F 46.5 °F 30.19 in Calm     74 % 0.00 in
08:38 54.3 °F 45.8 °F 30.19 in West 1.2 mph   73 % 0.00 in
08:43 54.6 °F 46.5 °F 30.19 in Calm     74 % 0.00 in
08:48 55.3 °F 46.1 °F 30.19 in SW 1.2 mph   71 % 0.00 in
08:53 54.9 °F 46.0 °F 30.19 in SW 1.2 mph   72 % 0.00 in
08:58 54.8 °F 45.9 °F 30.19 in Calm     72 % 0.00 in
09:03 55.1 °F 44.7 °F 30.19 in Calm     68 % 0.00 in
09:08 55.4 °F 45.4 °F 30.18 in Calm     69 % 0.00 in
09:13 56.1 °F 46.4 °F 30.18 in Calm     70 % 0.00 in
09:18 56.5 °F 45.7 °F 30.18 in Calm     67 % 0.00 in
09:23 56.8 °F 46.3 °F 30.18 in Calm     68 % 0.00 in
09:25 57.0 °F 46.1 °F 30.18 in Calm     67 % 0.00 in
09:30 57.5 °F 45.8 °F 30.18 in NW 1.2 mph 1.2 mph 65 % 0.00 in
09:35 58.1 °F 46.0 °F 30.18 in South 1.2 mph 1.2 mph 64 % 0.00 in
09:40 58.9 °F 45.9 °F 30.18 in WSW 1.2 mph 1.2 mph 62 % 0.00 in
09:45 59.2 °F 46.6 °F 30.18 in Calm     63 % 0.00 in
09:50 59.7 °F 45.8 °F 30.18 in ESE 1.2 mph 1.2 mph 60 % 0.00 in
09:55 59.7 °F 46.2 °F 30.18 in ESE 1.2 mph 1.2 mph 61 % 0.00 in
09:57 59.8 °F 45.9 °F 30.18 in Calm     60 % 0.00 in
10:02 60.1 °F 46.6 °F 30.18 in NNE 1.0 mph   61 % 0.00 in
10:07 60.7 °F 46.3 °F 30.18 in NW 1.2 mph   59 % 0.00 in
10:08 60.7 °F 46.3 °F 30.18 in Calm     59 % 0.00 in
10:13 61.1 °F 46.7 °F 30.18 in Calm     59 % 0.00 in
10:18 61.7 °F 46.8 °F 30.18 in Calm     58 % 0.00 in
10:23 62.1 °F 47.1 °F 30.17 in NW 2.3 mph 2.3 mph 58 % 0.00 in
10:28 62.0 °F 47.0 °F 30.17 in North 2.3 mph 2.3 mph 58 % 0.00 in
10:33 61.8 °F 45.5 °F 30.17 in NW 1.2 mph 1.2 mph 55 % 0.00 in
10:38 62.0 °F 46.6 °F 30.17 in East 2.3 mph 2.3 mph 57 % 0.00 in
10:41 62.1 °F 46.7 °F 30.17 in East 2.3 mph 2.3 mph 57 % 0.00 in
10:51 62.7 °F 46.8 °F 30.17 in Calm     56 % 0.00 in
10:56 62.9 °F 46.5 °F 30.17 in NW 2.3 mph   55 % 0.00 in
11:01 63.2 °F 46.3 °F 30.16 in NW 2.3 mph 2.3 mph 54 % 0.00 in
11:06 63.7 °F 47.7 °F 30.16 in Calm     56 % 0.00 in
11:11 64.6 °F 48.1 °F 30.16 in SE 1.0 mph 1.0 mph 55 % 0.00 in
11:16 65.0 °F 47.4 °F 30.15 in SSE 1.2 mph 1.2 mph 53 % 0.00 in
11:21 64.9 °F 46.8 °F 30.15 in Calm   0.2 mph 52 % 0.00 in
11:26 64.8 °F 46.2 °F 30.14 in WNW 1.2 mph 1.2 mph 51 % 0.00 in
11:31 64.7 °F 47.2 °F 30.14 in NW 2.3 mph 2.3 mph 53 % 0.00 in
11:36 64.7 °F 46.7 °F 30.14 in South 1.2 mph 1.2 mph 52 % 0.00 in
11:41 65.2 °F 47.1 °F 30.13 in Calm     52 % 0.00 in
11:46 65.4 °F 46.3 °F 30.13 in North 2.3 mph 2.3 mph 50 % 0.00 in
11:51 65.0 °F 45.9 °F 30.13 in NW 2.3 mph   50 % 0.00 in
11:56 64.8 °F 46.2 °F 30.12 in NW 1.2 mph 1.2 mph 51 % 0.00 in
12:01 65.2 °F 47.6 °F 30.12 in Calm     53 % 0.00 in
12:06 65.8 °F 46.6 °F 30.12 in Calm     50 % 0.00 in
12:11 65.4 °F 45.2 °F 30.11 in NNE 1.2 mph   48 % 0.00 in
12:16 65.7 °F 47.1 °F 30.11 in SSE 3.5 mph 3.5 mph 51 % 0.00 in
12:21 66.2 °F 47.0 °F 30.11 in East 1.2 mph   50 % 0.00 in
12:26 66.6 °F 45.7 °F 30.10 in SSE 1.2 mph 1.2 mph 47 % 0.00 in
12:31 67.0 °F 45.5 °F 30.10 in South 3.5 mph 3.5 mph 46 % 0.00 in
12:37 67.2 °F 46.3 °F 30.10 in ENE 2.3 mph 2.3 mph 47 % 0.00 in
12:41 67.4 °F 45.9 °F 30.10 in East 3.5 mph 3.5 mph 46 % 0.00 in
12:46 67.8 °F 47.4 °F 30.10 in NW 2.3 mph 2.3 mph 48 % 0.00 in
12:51 67.6 °F 46.1 °F 30.10 in NW 1.2 mph 1.2 mph 46 % 0.00 in
12:57 67.1 °F 46.2 °F 30.09 in West 2.3 mph 2.3 mph 47 % 0.00 in
13:01 67.4 °F 45.9 °F 30.10 in Calm     46 % 0.00 in
13:07 68.1 °F 45.4 °F 30.10 in NW 1.2 mph 1.2 mph 44 % 0.00 in
13:12 67.8 °F 44.5 °F 30.10 in WNW 2.3 mph 2.3 mph 43 % 0.00 in
13:17 67.3 °F 44.6 °F 30.09 in Calm     44 % 0.00 in
13:22 67.5 °F 44.2 °F 30.09 in Calm     43 % 0.00 in
13:27 68.1 °F 45.4 °F 30.09 in NW 1.2 mph   44 % 0.00 in
13:32 68.7 °F 45.3 °F 30.09 in Calm     43 % 0.00 in
13:42 69.0 °F 44.9 °F 30.09 in Calm     42 % 0.00 in
13:47 69.0 °F 44.9 °F 30.09 in East 2.0 mph 2.0 mph 42 % 0.00 in
13:52 69.1 °F 45.0 °F 30.09 in SSE 1.2 mph 1.2 mph 42 % 0.00 in
13:57 69.0 °F 44.3 °F 30.09 in East 1.2 mph 1.2 mph 41 % 0.00 in
14:02 68.8 °F 42.8 °F 30.08 in NW 1.0 mph 1.0 mph 39 % 0.00 in
14:07 68.8 °F 44.1 °F 30.08 in Calm     41 % 0.00 in
14:12 68.7 °F 43.4 °F 30.08 in North 1.2 mph 1.2 mph 40 % 0.00 in
14:17 68.4 °F 41.8 °F 30.08 in NW 1.2 mph 1.2 mph 38 % 0.00 in
14:22 68.1 °F 41.5 °F 30.08 in NW 2.3 mph 2.3 mph 38 % 0.00 in
14:27 67.9 °F 40.7 °F 30.08 in Calm     37 % 0.00 in
14:32 67.8 °F 40.6 °F 30.08 in WNW 1.2 mph   37 % 0.00 in
14:37 67.9 °F 42.0 °F 30.08 in Calm     39 % 0.00 in
14:42 67.6 °F 43.7 °F 30.08 in West 2.3 mph 2.3 mph 42 % 0.00 in
14:47 67.4 °F 42.9 °F 30.07 in SE 1.0 mph 1.0 mph 41 % 0.00 in
14:52 67.3 °F 42.8 °F 30.07 in Calm     41 % 0.00 in
14:57 67.3 °F 43.4 °F 30.06 in SE 1.2 mph   42 % 0.00 in
15:02 67.5 °F 43.0 °F 30.06 in SE 1.2 mph   41 % 0.00 in
15:07 67.3 °F 43.4 °F 30.06 in Calm     42 % 0.00 in
15:12 67.2 °F 43.3 °F 30.06 in Calm     42 % 0.00 in
15:17 67.1 °F 42.6 °F 30.06 in Calm     41 % 0.00 in
15:22 67.1 °F 45.0 °F 30.06 in Calm     45 % 0.00 in
15:27 67.0 °F 43.1 °F 30.06 in Calm     42 % 0.00 in
15:32 66.9 °F 43.0 °F 30.06 in WSW 1.2 mph   42 % 0.00 in
15:37 66.7 °F 44.1 °F 30.06 in WSW 1.2 mph   44 % 0.00 in
15:42 66.6 °F 44.6 °F 30.06 in WSW 1.2 mph   45 % 0.00 in
15:47 66.4 °F 44.4 °F 30.06 in Calm     45 % 0.00 in
15:52 66.3 °F 44.3 °F 30.06 in WNW 1.2 mph   45 % 0.00 in
15:57 66.0 °F 44.0 °F 30.06 in WNW 1.2 mph   45 % 0.00 in
16:02 65.9 °F 43.4 °F 30.06 in Calm     44 % 0.00 in
16:07 65.7 °F 43.8 °F 30.05 in Calm     45 % 0.00 in
16:12 65.5 °F 43.6 °F 30.05 in Calm     45 % 0.00 in
16:17 65.1 °F 44.4 °F 30.05 in Calm     47 % 0.00 in
16:22 64.7 °F 42.9 °F 30.05 in Calm     45 % 0.00 in
16:27 64.3 °F 43.6 °F 30.05 in Calm     47 % 0.00 in
16:32 63.7 °F 44.2 °F 30.04 in Calm     49 % 0.00 in
16:37 63.1 °F 45.2 °F 30.04 in Calm     52 % 0.00 in
16:42 62.6 °F 44.7 °F 30.05 in Calm     52 % 0.00 in
16:47 62.0 °F 45.2 °F 30.05 in Calm     54 % 0.00 in
16:52 61.3 °F 45.5 °F 30.05 in Calm     56 % 0.00 in
16:57 60.6 °F 45.7 °F 30.04 in Calm     58 % 0.00 in
17:02 59.8 °F 46.3 °F 30.04 in Calm     61 % 0.00 in
17:07 59.1 °F 46.5 °F 30.04 in Calm     63 % 0.00 in
17:18 57.6 °F 46.7 °F 30.04 in Calm     67 % 0.00 in
17:28 56.7 °F 46.6 °F 30.05 in Calm     69 % 0.00 in
17:33 56.3 °F 46.3 °F 30.04 in Calm     69 % 0.00 in
17:38 55.9 °F 45.5 °F 30.04 in Calm     68 % 0.00 in
17:43 55.4 °F 45.4 °F 30.05 in Calm     69 % 0.00 in
17:48 55.1 °F 45.5 °F 30.05 in Calm     70 % 0.00 in
17:53 54.9 °F 44.9 °F 30.05 in Calm     69 % 0.00 in
17:58 54.7 °F 45.1 °F 30.05 in Calm     70 % 0.00 in
18:03 54.3 °F 45.1 °F 30.05 in Calm     71 % 0.00 in
18:08 54.1 °F 44.9 °F 30.05 in Calm     71 % 0.00 in
18:18 53.8 °F 44.6 °F 30.06 in Calm     71 % 0.00 in
18:23 53.6 °F 44.8 °F 30.06 in Calm     72 % 0.00 in
18:28 53.2 °F 44.8 °F 30.06 in Calm     73 % 0.00 in
18:33 52.8 °F 44.7 °F 30.06 in Calm     74 % 0.00 in
18:38 52.4 °F 45.1 °F 30.06 in Calm     76 % 0.00 in
18:43 52.0 °F 45.0 °F 30.06 in Calm     77 % 0.00 in
18:48 51.5 °F 44.5 °F 30.06 in Calm     77 % 0.00 in
18:53 51.1 °F 44.5 °F 30.06 in Calm     78 % 0.00 in
18:58 51.0 °F 44.7 °F 30.07 in Calm     79 % 0.00 in
19:03 51.0 °F 44.4 °F 30.07 in Calm     78 % 0.00 in
19:08 51.0 °F 44.4 °F 30.06 in Calm     78 % 0.00 in
19:13 51.0 °F 44.0 °F 30.06 in Calm     77 % 0.00 in
19:18 51.1 °F 44.5 °F 30.06 in Calm     78 % 0.00 in
19:19 51.1 °F 44.5 °F 30.06 in Calm     78 % 0.00 in
19:20 51.1 °F 44.5 °F 30.06 in Calm     78 % 0.00 in
19:25 51.1 °F 44.5 °F 30.07 in Calm     78 % 0.00 in
19:30 51.1 °F 44.1 °F 30.07 in Calm     77 % 0.00 in
19:36 51.2 °F 44.6 °F 30.07 in Calm     78 % 0.00 in
19:41 51.0 °F 44.0 °F 30.07 in Calm     77 % 0.00 in
19:42 50.9 °F 43.9 °F 30.07 in Calm     77 % 0.00 in
19:47 50.8 °F 44.5 °F 30.07 in Calm     79 % 0.00 in
19:52 50.6 °F 44.7 °F 30.07 in Calm     80 % 0.00 in
19:57 50.5 °F 44.2 °F 30.07 in Calm     79 % 0.00 in
20:02 50.3 °F 44.4 °F 30.08 in Calm     80 % 0.00 in
20:07 50.5 °F 44.2 °F 30.08 in Calm     79 % 0.00 in
20:12 50.7 °F 43.8 °F 30.08 in Calm     77 % 0.00 in
20:17 50.5 °F 43.2 °F 30.08 in Calm     76 % 0.00 in
20:23 50.5 °F 43.2 °F 30.08 in Calm     76 % 0.00 in
20:28 50.6 °F 43.0 °F 30.08 in Calm     75 % 0.00 in
20:33 50.4 °F 43.1 °F 30.08 in Calm     76 % 0.00 in
20:38 50.2 °F 42.6 °F 30.08 in Calm     75 % 0.00 in
20:42 50.0 °F 42.7 °F 30.08 in Calm     76 % 0.00 in
20:48 49.6 °F 43.0 °F 30.08 in Calm     78 % 0.00 in
20:53 49.3 °F 42.7 °F 30.08 in Calm     78 % 0.00 in
20:58 49.0 °F 42.8 °F 30.08 in Calm     79 % 0.00 in
21:03 48.8 °F 43.2 °F 30.09 in Calm     81 % 0.00 in
21:08 48.7 °F 43.1 °F 30.09 in Calm     81 % 0.00 in
21:13 48.5 °F 42.9 °F 30.09 in Calm     81 % 0.00 in
21:18 48.1 °F 42.5 °F 30.09 in Calm     81 % 0.00 in
21:23 47.9 °F 43.0 °F 30.09 in Calm     83 % 0.00 in
21:28 47.7 °F 42.8 °F 30.09 in Calm     83 % 0.00 in
21:33 47.7 °F 43.1 °F 30.09 in Calm     84 % 0.00 in
21:38 47.8 °F 43.2 °F 30.09 in Calm     84 % 0.00 in
21:48 47.5 °F 42.9 °F 30.09 in Calm     84 % 0.00 in
21:53 47.3 °F 43.0 °F 30.09 in Calm     85 % 0.00 in
21:58 47.5 °F 43.2 °F 30.09 in North 1.2 mph 1.2 mph 85 % 0.00 in
22:03 47.3 °F 43.0 °F 30.09 in Calm     85 % 0.00 in
22:08 47.0 °F 42.7 °F 30.10 in Calm     85 % 0.00 in
22:13 46.9 °F 42.6 °F 30.10 in Calm     85 % 0.00 in
22:18 46.8 °F 42.5 °F 30.10 in Calm     85 % 0.00 in
22:23 46.9 °F 42.3 °F 30.10 in Calm     84 % 0.00 in
22:28 47.3 °F 42.4 °F 30.10 in Calm     83 % 0.00 in
22:33 47.5 °F 42.0 °F 30.10 in Calm     81 % 0.00 in
22:38 47.7 °F 41.5 °F 30.10 in Calm     79 % 0.00 in
22:43 47.9 °F 41.4 °F 30.10 in Calm     78 % 0.00 in
22:48 48.1 °F 41.6 °F 30.10 in Calm     78 % 0.00 in
22:53 48.1 °F 41.2 °F 30.10 in WNW 1.2 mph 1.2 mph 77 % 0.00 in
22:58 48.3 °F 41.4 °F 30.10 in WNW 1.2 mph   77 % 0.00 in
23:03 48.4 °F 41.5 °F 30.10 in Calm     77 % 0.00 in
23:08 48.5 °F 41.3 °F 30.10 in Calm   0.1 mph 76 % 0.00 in
23:13 48.6 °F 41.4 °F 30.10 in Calm     76 % 0.00 in
23:18 48.6 °F 41.4 °F 30.10 in Calm     76 % 0.00 in
23:23 48.6 °F 41.7 °F 30.10 in Calm     77 % 0.00 in
23:28 48.3 °F 42.1 °F 30.10 in Calm     79 % 0.00 in
23:33 47.8 °F 41.9 °F 30.10 in Calm     80 % 0.00 in
23:38 47.2 °F 41.3 °F 30.10 in Calm     80 % 0.00 in
23:44 46.5 °F 41.0 °F 30.10 in Calm     81 % 0.00 in
23:49 46.1 °F 40.9 °F 30.10 in Calm     82 % 0.00 in
23:54 45.8 °F 40.9 °F 30.10 in Calm     83 % 0.00 in
23:59 45.5 °F 40.9 °F 30.10 in Calm     84 % 0.00 in
Park Place, Exeter, Tulare County, California, USA
Compliments of Weather Underground - 2.75 mb